Time;durP1;ratioP1;P1;durP2;ratioP2;P2;SDS_P1;SDS_P2;PMS_P1;PMS_P2;Temp;Humidity;BMP_temperature;BMP_pressure;BME280_temperature;BME280_humidity;BME280_pressure;Samples;Min_cycle;Max_cycle;Signal;HPM_P1;HPM_P2
2023/07/17 00:01:57;;;;;;;29.00;26.80;;;;;;;-128.00;-1.00;-1.00;106024;1250;1004226;-71
2023/07/17 00:04:23;;;;;;;28.70;26.40;;;;;;;-128.00;-1.00;-1.00;105946;1250;1004571;-71
2023/07/17 00:06:50;;;;;;;26.60;24.70;;;;;;;-128.00;-1.00;-1.00;106005;1249;1003981;-71
2023/07/17 00:09:17;;;;;;;24.20;22.40;;;;;;;-128.00;-1.00;-1.00;105985;1250;1004172;-71
2023/07/17 00:11:43;;;;;;;23.00;21.20;;;;;;;-128.00;-1.00;-1.00;105970;1249;1004133;-71
2023/07/17 00:14:10;;;;;;;23.80;22.10;;;;;;;-128.00;-1.00;-1.00;105930;1250;1003586;-72
2023/07/17 00:16:36;;;;;;;26.00;23.90;;;;;;;-128.00;-1.00;-1.00;106008;1249;1003787;-71
2023/07/17 00:19:03;;;;;;;28.70;26.50;;;;;;;-128.00;-1.00;-1.00;105988;1249;1005189;-72
2023/07/17 00:21:30;;;;;;;29.20;27.00;;;;;;;-128.00;-1.00;-1.00;105977;1250;1004774;-71
2023/07/17 00:23:57;;;;;;;28.50;26.40;;;;;;;-128.00;-1.00;-1.00;105945;1250;1004931;-71
2023/07/17 00:26:24;;;;;;;28.50;26.50;;;;;;;-128.00;-1.00;-1.00;105983;1250;1004599;-71
2023/07/17 00:29:14;;;;;;;28.70;26.50;;;;;;;-128.00;-1.00;-1.00;105981;1249;1004089;-71
2023/07/17 00:31:41;;;;;;;28.80;26.60;;;;;;;-128.00;-1.00;-1.00;106002;1249;1062270;-72
2023/07/17 00:34:07;;;;;;;28.00;25.90;;;;;;;-128.00;-1.00;-1.00;105994;1250;1005009;-72
2023/07/17 00:36:34;;;;;;;28.40;26.30;;;;;;;-128.00;-1.00;-1.00;105921;1249;1003501;-72
2023/07/17 00:39:00;;;;;;;25.80;23.80;;;;;;;-128.00;-1.00;-1.00;105955;1249;1004601;-72
2023/07/17 00:41:27;;;;;;;26.30;24.40;;;;;;;-128.00;-1.00;-1.00;106017;1250;1004828;-72
2023/07/17 00:43:53;;;;;;;28.50;26.30;;;;;;;-128.00;-1.00;-1.00;105950;1251;1003479;-72
2023/07/17 00:46:21;;;;;;;30.50;28.10;;;;;;;-128.00;-1.00;-1.00;106019;1250;1004476;-73
2023/07/17 00:48:48;;;;;;;29.70;27.40;;;;;;;-128.00;-1.00;-1.00;105935;1250;1004037;-71
2023/07/17 00:51:14;;;;;;;31.50;29.10;;;;;;;-128.00;-1.00;-1.00;105935;1249;1004296;-70
2023/07/17 00:53:43;;;;;;;31.50;29.00;;;;;;;-128.00;-1.00;-1.00;106036;1250;1004030;-71
2023/07/17 00:56:10;;;;;;;31.80;29.30;;;;;;;-128.00;-1.00;-1.00;105916;1250;1061510;-71
2023/07/17 00:58:37;;;;;;;34.30;31.60;;;;;;;-128.00;-1.00;-1.00;105964;1250;1004155;-71
2023/07/17 01:01:04;;;;;;;32.00;29.50;;;;;;;-128.00;-1.00;-1.00;105973;1250;1004025;-71
2023/07/17 01:03:30;;;;;;;30.40;28.10;;;;;;;-128.00;-1.00;-1.00;105919;1249;1004014;-71
2023/07/17 01:05:57;;;;;;;33.60;30.90;;;;;;;-128.00;-1.00;-1.00;105989;1250;1004261;-71
2023/07/17 01:08:23;;;;;;;33.10;30.60;;;;;;;-128.00;-1.00;-1.00;105834;1250;1004535;-71
2023/07/17 01:10:51;;;;;;;32.00;29.50;;;;;;;-128.00;-1.00;-1.00;106006;1249;1003689;-71
2023/07/17 01:13:17;;;;;;;32.60;29.90;;;;;;;-128.00;-1.00;-1.00;105941;1250;1003803;-71
2023/07/17 01:15:44;;;;;;;32.80;30.40;;;;;;;-128.00;-1.00;-1.00;105917;1249;1004154;-71
2023/07/17 01:18:10;;;;;;;31.90;29.40;;;;;;;-128.00;-1.00;-1.00;105977;1249;1006179;-71
2023/07/17 01:20:37;;;;;;;30.30;28.00;;;;;;;-128.00;-1.00;-1.00;105953;1250;1005541;-71
2023/07/17 01:23:04;;;;;;;28.70;26.40;;;;;;;-128.00;-1.00;-1.00;105956;1250;1003701;-71
2023/07/17 01:25:31;;;;;;;26.40;24.50;;;;;;;-128.00;-1.00;-1.00;105966;1250;1004943;-71
2023/07/17 01:27:58;;;;;;;29.20;27.00;;;;;;;-128.00;-1.00;-1.00;106003;1250;1005448;-71
2023/07/17 01:30:25;;;;;;;29.80;27.50;;;;;;;-128.00;-1.00;-1.00;105821;1249;1004361;-71
2023/07/17 01:32:52;;;;;;;29.30;26.90;;;;;;;-128.00;-1.00;-1.00;105932;1251;1004308;-71
2023/07/17 01:35:18;;;;;;;30.20;27.90;;;;;;;-128.00;-1.00;-1.00;105985;1249;1004036;-71
2023/07/17 01:37:45;;;;;;;31.90;29.40;;;;;;;-128.00;-1.00;-1.00;105950;1249;1004288;-71
2023/07/17 01:40:14;;;;;;;32.30;29.70;;;;;;;-128.00;-1.00;-1.00;105965;1249;1005032;-71
2023/07/17 01:42:41;;;;;;;32.80;30.40;;;;;;;-128.00;-1.00;-1.00;105835;1249;1046807;-71
2023/07/17 01:45:08;;;;;;;35.60;32.70;;;;;;;-128.00;-1.00;-1.00;105723;1250;1004761;-71
2023/07/17 01:47:34;;;;;;;30.10;27.90;;;;;;;-128.00;-1.00;-1.00;105976;1250;1005070;-71
2023/07/17 01:50:02;;;;;;;34.10;31.40;;;;;;;-128.00;-1.00;-1.00;105828;1250;1004575;-71
2023/07/17 01:52:29;;;;;;;35.60;32.90;;;;;;;-128.00;-1.00;-1.00;105967;1250;1003766;-71
2023/07/17 01:54:56;;;;;;;35.60;32.70;;;;;;;-128.00;-1.00;-1.00;106049;1250;1004707;-71
2023/07/17 01:57:23;;;;;;;33.80;31.20;;;;;;;-128.00;-1.00;-1.00;105944;1250;1004531;-71
2023/07/17 01:59:49;;;;;;;31.30;28.90;;;;;;;-128.00;-1.00;-1.00;106016;1250;1004326;-71
2023/07/17 02:02:16;;;;;;;35.70;32.90;;;;;;;-128.00;-1.00;-1.00;105993;1249;1004262;-71
2023/07/17 02:04:42;;;;;;;31.80;29.40;;;;;;;-128.00;-1.00;-1.00;105990;1249;1003551;-72
2023/07/17 02:07:09;;;;;;;32.60;30.10;;;;;;;-128.00;-1.00;-1.00;106008;1250;1004316;-72
2023/07/17 02:09:36;;;;;;;32.10;29.40;;;;;;;-128.00;-1.00;-1.00;105973;1251;1004201;-72
2023/07/17 02:12:03;;;;;;;31.50;29.00;;;;;;;-128.00;-1.00;-1.00;106019;1251;1005024;-72
2023/07/17 02:14:30;;;;;;;30.60;28.20;;;;;;;-128.00;-1.00;-1.00;105909;1250;1003477;-72
2023/07/17 02:16:58;;;;;;;33.10;30.60;;;;;;;-128.00;-1.00;-1.00;105795;1249;1004685;-72
2023/07/17 02:19:24;;;;;;;31.80;29.40;;;;;;;-128.00;-1.00;-1.00;105701;1250;1004237;-72
2023/07/17 02:21:51;;;;;;;30.20;27.80;;;;;;;-128.00;-1.00;-1.00;106000;1250;1005473;-72
2023/07/17 02:24:17;;;;;;;27.80;25.90;;;;;;;-128.00;-1.00;-1.00;105668;1251;1004108;-72
2023/07/17 02:26:44;;;;;;;28.10;26.00;;;;;;;-128.00;-1.00;-1.00;105951;1250;1004596;-72
2023/07/17 02:29:11;;;;;;;29.10;27.00;;;;;;;-128.00;-1.00;-1.00;105968;1249;1004720;-72
2023/07/17 02:31:37;;;;;;;31.30;28.90;;;;;;;-128.00;-1.00;-1.00;106021;1249;1004518;-73
2023/07/17 02:34:04;;;;;;;33.30;30.60;;;;;;;-128.00;-1.00;-1.00;105949;1250;1004729;-72
2023/07/17 02:36:30;;;;;;;32.70;30.20;;;;;;;-128.00;-1.00;-1.00;106007;1249;1003971;-72
2023/07/17 02:38:57;;;;;;;33.20;30.40;;;;;;;-128.00;-1.00;-1.00;105965;1251;1004375;-72
2023/07/17 02:41:23;;;;;;;31.70;29.40;;;;;;;-128.00;-1.00;-1.00;106015;1249;1003562;-71
2023/07/17 02:43:51;;;;;;;33.10;30.50;;;;;;;-128.00;-1.00;-1.00;106013;1250;1005394;-71
2023/07/17 02:46:17;;;;;;;33.60;31.00;;;;;;;-128.00;-1.00;-1.00;105990;1251;1004406;-70
2023/07/17 02:48:44;;;;;;;35.90;33.20;;;;;;;-128.00;-1.00;-1.00;105703;1250;1004728;-71
2023/07/17 02:51:11;;;;;;;31.90;29.50;;;;;;;-128.00;-1.00;-1.00;105960;1249;1004141;-71
2023/07/17 02:53:38;;;;;;;32.30;29.90;;;;;;;-128.00;-1.00;-1.00;105946;1250;1004506;-71
2023/07/17 02:56:04;;;;;;;36.90;34.00;;;;;;;-128.00;-1.00;-1.00;106010;1249;1004713;-71
2023/07/17 02:58:31;;;;;;;31.30;29.00;;;;;;;-128.00;-1.00;-1.00;106002;1250;1004385;-72
2023/07/17 03:00:58;;;;;;;36.30;33.50;;;;;;;-128.00;-1.00;-1.00;105953;1250;1003677;-71
2023/07/17 03:03:25;;;;;;;36.00;33.20;;;;;;;-128.00;-1.00;-1.00;105970;1250;1004044;-71
2023/07/17 03:05:56;;;;;;;34.70;31.70;;;;;;;-128.00;-1.00;-1.00;105834;1250;1005756;-72
2023/07/17 03:08:22;;;;;;;33.40;30.70;;;;;;;-128.00;-1.00;-1.00;105664;1249;1047908;-71
2023/07/17 03:10:49;;;;;;;32.70;30.20;;;;;;;-128.00;-1.00;-1.00;105987;1253;1003534;-71
2023/07/17 03:13:16;;;;;;;32.90;30.40;;;;;;;-128.00;-1.00;-1.00;105980;1250;1005249;-71
2023/07/17 03:15:42;;;;;;;32.10;29.70;;;;;;;-128.00;-1.00;-1.00;105952;1250;1004000;-71
2023/07/17 03:18:09;;;;;;;31.00;28.40;;;;;;;-128.00;-1.00;-1.00;105980;1251;1003845;-71
2023/07/17 03:20:42;;;;;;;34.30;31.60;;;;;;;-128.00;-1.00;-1.00;105993;1250;1003876;-72
2023/07/17 03:23:08;;;;;;;32.10;29.50;;;;;;;-128.00;-1.00;-1.00;105904;1249;1061565;-72
2023/07/17 03:25:35;;;;;;;29.40;27.10;;;;;;;-128.00;-1.00;-1.00;106030;1249;1004479;-72
2023/07/17 03:28:02;;;;;;;30.60;28.30;;;;;;;-128.00;-1.00;-1.00;105959;1250;1004367;-73
2023/07/17 03:30:28;;;;;;;29.40;27.30;;;;;;;-128.00;-1.00;-1.00;105749;1250;1004252;-73
2023/07/17 03:32:55;;;;;;;29.30;27.00;;;;;;;-128.00;-1.00;-1.00;105959;1250;1004750;-72
2023/07/17 03:35:21;;;;;;;29.60;27.20;;;;;;;-128.00;-1.00;-1.00;105938;1250;1004305;-73
2023/07/17 03:37:48;;;;;;;28.70;26.30;;;;;;;-128.00;-1.00;-1.00;105969;1250;1004528;-73
2023/07/17 03:40:15;;;;;;;29.20;27.00;;;;;;;-128.00;-1.00;-1.00;105927;1250;1004197;-72
2023/07/17 03:42:41;;;;;;;25.90;23.90;;;;;;;-128.00;-1.00;-1.00;105657;1251;1003817;-72
2023/07/17 03:45:08;;;;;;;27.20;24.90;;;;;;;-128.00;-1.00;-1.00;105993;1251;1003742;-73
2023/07/17 03:47:35;;;;;;;27.50;25.40;;;;;;;-128.00;-1.00;-1.00;106024;1250;1004430;-72
2023/07/17 03:50:01;;;;;;;26.00;23.90;;;;;;;-128.00;-1.00;-1.00;105841;1249;1004903;-72
2023/07/17 03:52:28;;;;;;;26.90;24.90;;;;;;;-128.00;-1.00;-1.00;105975;1250;1004330;-73
2023/07/17 03:54:55;;;;;;;26.30;24.40;;;;;;;-128.00;-1.00;-1.00;105990;1250;1004524;-73
2023/07/17 03:57:22;;;;;;;26.40;24.30;;;;;;;-128.00;-1.00;-1.00;105961;1250;1004993;-72
2023/07/17 03:59:54;;;;;;;26.30;24.10;;;;;;;-128.00;-1.00;-1.00;105717;1249;1004428;-72
2023/07/17 04:02:22;;;;;;;28.60;26.50;;;;;;;-128.00;-1.00;-1.00;106019;1250;1054443;-72
2023/07/17 04:04:50;;;;;;;27.80;25.70;;;;;;;-128.00;-1.00;-1.00;105979;1250;1004781;-72
2023/07/17 04:07:16;;;;;;;28.30;25.90;;;;;;;-128.00;-1.00;-1.00;105948;1249;1004809;-72
2023/07/17 04:09:43;;;;;;;27.90;25.80;;;;;;;-128.00;-1.00;-1.00;105948;1250;1004525;-72
2023/07/17 04:12:11;;;;;;;29.50;27.30;;;;;;;-128.00;-1.00;-1.00;105821;1249;1004091;-72
2023/07/17 04:14:38;;;;;;;30.30;27.90;;;;;;;-128.00;-1.00;-1.00;106015;1249;1004293;-72
2023/07/17 04:17:05;;;;;;;29.00;26.80;;;;;;;-128.00;-1.00;-1.00;105633;1249;1004844;-73
2023/07/17 04:19:31;;;;;;;30.60;28.10;;;;;;;-128.00;-1.00;-1.00;105959;1250;1004406;-71
2023/07/17 04:21:58;;;;;;;29.90;27.60;;;;;;;-128.00;-1.00;-1.00;105957;1250;1004149;-73
2023/07/17 04:24:25;;;;;;;28.70;26.60;;;;;;;-128.00;-1.00;-1.00;106057;1250;1004290;-72
2023/07/17 04:26:52;;;;;;;30.60;28.00;;;;;;;-128.00;-1.00;-1.00;105999;1250;1004238;-72
2023/07/17 04:29:22;;;;;;;30.30;28.20;;;;;;;-128.00;-1.00;-1.00;105912;1250;1004422;-72
2023/07/17 04:31:49;;;;;;;30.70;28.30;;;;;;;-128.00;-1.00;-1.00;105936;1250;1046624;-72
2023/07/17 04:34:16;;;;;;;31.20;28.60;;;;;;;-128.00;-1.00;-1.00;106000;1250;1004400;-72
2023/07/17 04:36:42;;;;;;;32.80;30.30;;;;;;;-128.00;-1.00;-1.00;105962;1249;1004203;-72
2023/07/17 04:39:09;;;;;;;34.90;32.20;;;;;;;-128.00;-1.00;-1.00;105962;1249;1004239;-72
2023/07/17 04:41:36;;;;;;;37.00;34.20;;;;;;;-128.00;-1.00;-1.00;105939;1249;1004757;-72
2023/07/17 04:44:02;;;;;;;36.60;33.90;;;;;;;-128.00;-1.00;-1.00;105926;1249;1005212;-72
2023/07/17 04:46:29;;;;;;;39.40;36.30;;;;;;;-128.00;-1.00;-1.00;105961;1251;1004739;-72
2023/07/17 04:48:56;;;;;;;36.80;34.10;;;;;;;-128.00;-1.00;-1.00;105988;1249;1004834;-72
2023/07/17 04:51:23;;;;;;;37.50;34.50;;;;;;;-128.00;-1.00;-1.00;105935;1250;1003761;-72
2023/07/17 04:53:49;;;;;;;36.80;34.00;;;;;;;-128.00;-1.00;-1.00;105999;1249;1005123;-72
2023/07/17 04:56:16;;;;;;;37.80;34.50;;;;;;;-128.00;-1.00;-1.00;105953;1249;1003662;-72
2023/07/17 04:58:42;;;;;;;34.60;31.90;;;;;;;-128.00;-1.00;-1.00;105649;1250;1005079;-72
2023/07/17 05:01:09;;;;;;;34.40;31.70;;;;;;;-128.00;-1.00;-1.00;105992;1251;1003591;-72
2023/07/17 05:03:36;;;;;;;32.80;30.40;;;;;;;-128.00;-1.00;-1.00;105975;1251;1004758;-73
2023/07/17 05:06:03;;;;;;;30.90;28.50;;;;;;;-128.00;-1.00;-1.00;105959;1251;1004180;-72
2023/07/17 05:08:30;;;;;;;31.50;29.30;;;;;;;-128.00;-1.00;-1.00;105929;1249;1003777;-72
2023/07/17 05:10:58;;;;;;;29.00;26.90;;;;;;;-128.00;-1.00;-1.00;105921;1250;1004340;-71
2023/07/17 05:13:26;;;;;;;31.00;28.30;;;;;;;-128.00;-1.00;-1.00;105899;1250;1062125;-72
2023/07/17 05:15:53;;;;;;;25.90;23.70;;;;;;;-128.00;-1.00;-1.00;105994;1250;1004935;-71
2023/07/17 05:18:19;;;;;;;22.40;20.30;;;;;;;-128.00;-1.00;-1.00;105960;1251;1004247;-72
2023/07/17 05:20:50;;;;;;;17.90;16.30;;;;;;;-128.00;-1.00;-1.00;105965;1251;1004649;-72
2023/07/17 05:23:17;;;;;;;15.10;13.60;;;;;;;-128.00;-1.00;-1.00;106008;1250;1046982;-72
2023/07/17 05:25:53;;;;;;;9.80;8.70;;;;;;;-128.00;-1.00;-1.00;105982;1250;1004634;-72
2023/07/17 05:28:20;;;;;;;8.90;7.10;;;;;;;-128.00;-1.00;-1.00;105984;1250;1054655;-71
2023/07/17 05:30:50;;;;;;;7.90;6.10;;;;;;;-128.00;-1.00;-1.00;105911;1250;1004172;-71
2023/07/17 05:33:18;;;;;;;6.10;5.50;;;;;;;-128.00;-1.00;-1.00;105954;1251;1045573;-72
2023/07/17 05:35:44;;;;;;;6.70;4.80;;;;;;;-128.00;-1.00;-1.00;105985;1249;1004647;-73
2023/07/17 05:38:11;;;;;;;5.90;4.50;;;;;;;-128.00;-1.00;-1.00;105982;1249;1005255;-73
2023/07/17 05:40:39;;;;;;;4.30;3.90;;;;;;;-128.00;-1.00;-1.00;105953;1250;1003664;-72
2023/07/17 05:43:06;;;;;;;4.60;3.80;;;;;;;-128.00;-1.00;-1.00;105923;1251;1003747;-72
2023/07/17 05:45:34;;;;;;;5.90;3.50;;;;;;;-128.00;-1.00;-1.00;105920;1250;1003498;-72
2023/07/17 05:48:00;;;;;;;3.40;3.10;;;;;;;-128.00;-1.00;-1.00;105707;1250;1003591;-72
2023/07/17 05:50:27;;;;;;;3.50;3.20;;;;;;;-128.00;-1.00;-1.00;105970;1250;1004485;-72
2023/07/17 05:52:54;;;;;;;3.00;2.70;;;;;;;-128.00;-1.00;-1.00;105935;1251;1004182;-72
2023/07/17 05:55:20;;;;;;;4.60;2.90;;;;;;;-128.00;-1.00;-1.00;105955;1249;1004471;-72
2023/07/17 05:57:47;;;;;;;2.90;2.70;;;;;;;-128.00;-1.00;-1.00;105690;1251;1003867;-72
2023/07/17 06:00:14;;;;;;;2.60;2.40;;;;;;;-128.00;-1.00;-1.00;105941;1251;1005071;-72
2023/07/17 06:02:41;;;;;;;3.10;2.40;;;;;;;-128.00;-1.00;-1.00;105949;1251;1004783;-72
2023/07/17 06:05:10;;;;;;;2.70;2.50;;;;;;;-128.00;-1.00;-1.00;105975;1251;1003994;-72
2023/07/17 06:07:37;;;;;;;3.20;2.70;;;;;;;-128.00;-1.00;-1.00;105676;1251;1004250;-72
2023/07/17 06:10:05;;;;;;;3.00;2.80;;;;;;;-128.00;-1.00;-1.00;105993;1251;1003382;-72
2023/07/17 06:12:32;;;;;;;3.10;2.90;;;;;;;-128.00;-1.00;-1.00;105631;1258;1005583;-72
2023/07/17 06:14:59;;;;;;;3.70;3.40;;;;;;;-128.00;-1.00;-1.00;105950;1251;1005273;-73
2023/07/17 06:17:25;;;;;;;4.00;3.70;;;;;;;-128.00;-1.00;-1.00;105731;1250;1003730;-73
2023/07/17 06:19:52;;;;;;;5.20;3.90;;;;;;;-128.00;-1.00;-1.00;105937;1251;1004383;-73
2023/07/17 06:22:19;;;;;;;4.00;3.40;;;;;;;-128.00;-1.00;-1.00;105944;1250;1004128;-73
2023/07/17 06:24:45;;;;;;;3.70;3.40;;;;;;;-128.00;-1.00;-1.00;105965;1251;1004092;-73
2023/07/17 06:27:12;;;;;;;4.40;3.90;;;;;;;-128.00;-1.00;-1.00;105969;1250;1004678;-73
2023/07/17 06:29:39;;;;;;;4.50;3.60;;;;;;;-128.00;-1.00;-1.00;105989;1250;1003862;-71
2023/07/17 06:32:06;;;;;;;4.40;3.90;;;;;;;-128.00;-1.00;-1.00;105919;1251;1004300;-72
2023/07/17 06:34:32;;;;;;;4.20;3.80;;;;;;;-128.00;-1.00;-1.00;105662;1251;1005340;-72
2023/07/17 06:37:01;;;;;;;4.30;3.90;;;;;;;-128.00;-1.00;-1.00;105976;1250;1004674;-72
2023/07/17 06:39:27;;;;;;;4.50;4.10;;;;;;;-128.00;-1.00;-1.00;105945;1253;1005247;-71
2023/07/17 06:41:55;;;;;;;3.90;3.50;;;;;;;-128.00;-1.00;-1.00;105982;1251;1003224;-72
2023/07/17 06:44:22;;;;;;;4.30;3.90;;;;;;;-128.00;-1.00;-1.00;105560;1251;1003405;-72
2023/07/17 06:46:48;;;;;;;5.10;4.30;;;;;;;-128.00;-1.00;-1.00;105909;1250;1003708;-73
2023/07/17 06:49:15;;;;;;;4.30;3.70;;;;;;;-128.00;-1.00;-1.00;105946;1251;1004218;-73
2023/07/17 06:51:42;;;;;;;5.60;4.00;;;;;;;-128.00;-1.00;-1.00;105933;1251;1004501;-72
2023/07/17 06:54:09;;;;;;;3.90;3.60;;;;;;;-128.00;-1.00;-1.00;105710;1251;1004428;-73
2023/07/17 06:56:35;;;;;;;4.30;3.70;;;;;;;-128.00;-1.00;-1.00;105897;1251;1003728;-73
2023/07/17 06:59:02;;;;;;;5.30;3.80;;;;;;;-128.00;-1.00;-1.00;105923;1251;1004410;-72
2023/07/17 07:01:29;;;;;;;4.50;4.10;;;;;;;-128.00;-1.00;-1.00;105958;1251;1004158;-72
2023/07/17 07:03:55;;;;;;;5.30;4.60;;;;;;;-128.00;-1.00;-1.00;105705;1250;1004519;-73
2023/07/17 07:06:22;;;;;;;5.60;4.50;;;;;;;-128.00;-1.00;-1.00;105955;1251;1003889;-72
2023/07/17 07:08:48;;;;;;;5.40;4.80;;;;;;;-128.00;-1.00;-1.00;105914;1250;1003835;-73
2023/07/17 07:11:15;;;;;;;4.90;4.40;;;;;;;-128.00;-1.00;-1.00;105952;1249;1003388;-72
2023/07/17 07:13:44;;;;;;;4.70;4.30;;;;;;;-128.00;-1.00;-1.00;105949;1250;1004480;-73
2023/07/17 07:16:11;;;;;;;4.30;3.50;;;;;;;-128.00;-1.00;-1.00;105948;1251;1061961;-73
2023/07/17 07:18:37;;;;;;;4.20;3.80;;;;;;;-128.00;-1.00;-1.00;105972;1251;1003523;-73
2023/07/17 07:21:04;;;;;;;3.90;3.60;;;;;;;-128.00;-1.00;-1.00;105944;1250;1004415;-73
2023/07/17 07:23:30;;;;;;;3.40;3.10;;;;;;;-128.00;-1.00;-1.00;105926;1250;1004631;-74
2023/07/17 07:25:57;;;;;;;3.60;3.30;;;;;;;-128.00;-1.00;-1.00;105918;1250;1003640;-74
2023/07/17 07:28:24;;;;;;;3.20;3.00;;;;;;;-128.00;-1.00;-1.00;105922;1251;1004479;-74
2023/07/17 07:30:55;;;;;;;3.20;2.80;;;;;;;-128.00;-1.00;-1.00;105956;1251;1004583;-73
2023/07/17 07:33:22;;;;;;;2.70;2.50;;;;;;;-128.00;-1.00;-1.00;105921;1250;1058725;-73
2023/07/17 07:35:49;;;;;;;2.80;2.50;;;;;;;-128.00;-1.00;-1.00;105941;1251;1003719;-73
2023/07/17 07:38:15;;;;;;;5.20;2.90;;;;;;;-128.00;-1.00;-1.00;105957;1251;1004917;-73
2023/07/17 07:40:42;;;;;;;2.70;2.50;;;;;;;-128.00;-1.00;-1.00;105998;1251;1003851;-72
2023/07/17 07:43:08;;;;;;;2.80;2.60;;;;;;;-128.00;-1.00;-1.00;105680;1251;1004861;-74
2023/07/17 07:45:35;;;;;;;2.60;2.40;;;;;;;-128.00;-1.00;-1.00;105616;1251;1004427;-73
2023/07/17 07:48:02;;;;;;;2.50;2.10;;;;;;;-128.00;-1.00;-1.00;105910;1251;1005118;-73
2023/07/17 07:50:28;;;;;;;5.20;2.30;;;;;;;-128.00;-1.00;-1.00;105966;1253;1003998;-74
2023/07/17 07:52:55;;;;;;;3.20;2.80;;;;;;;-128.00;-1.00;-1.00;105962;1250;1003768;-73
2023/07/17 07:55:22;;;;;;;3.80;2.70;;;;;;;-128.00;-1.00;-1.00;105971;1250;1004758;-74
2023/07/17 07:57:49;;;;;;;2.20;2.00;;;;;;;-128.00;-1.00;-1.00;105942;1251;1004029;-74
2023/07/17 08:00:16;;;;;;;2.80;2.60;;;;;;;-128.00;-1.00;-1.00;105947;1251;1004360;-72
2023/07/17 08:02:42;;;;;;;2.30;2.10;;;;;;;-128.00;-1.00;-1.00;105922;1250;1003844;-76
2023/07/17 08:05:10;;;;;;;2.40;2.10;;;;;;;-128.00;-1.00;-1.00;105997;1251;1003949;-76
2023/07/17 08:07:36;;;;;;;2.20;2.00;;;;;;;-128.00;-1.00;-1.00;105945;1251;1004340;-76
2023/07/17 08:10:03;;;;;;;3.20;2.00;;;;;;;-128.00;-1.00;-1.00;105965;1250;1003743;-79
2023/07/17 08:12:31;;;;;;;2.50;2.10;;;;;;;-128.00;-1.00;-1.00;105925;1251;1004249;-78
2023/07/17 08:14:57;;;;;;;3.20;2.20;;;;;;;-128.00;-1.00;-1.00;105905;1249;1004866;-77
2023/07/17 08:17:24;;;;;;;3.10;2.40;;;;;;;-128.00;-1.00;-1.00;106004;1251;1003936;-77
2023/07/17 08:19:51;;;;;;;2.10;2.00;;;;;;;-128.00;-1.00;-1.00;105996;1250;1004987;-77
2023/07/17 08:22:17;;;;;;;2.10;2.00;;;;;;;-128.00;-1.00;-1.00;105834;1250;1005068;-77
2023/07/17 08:24:44;;;;;;;3.30;1.80;;;;;;;-128.00;-1.00;-1.00;105927;1250;1004181;-77
2023/07/17 08:27:10;;;;;;;2.10;1.80;;;;;;;-128.00;-1.00;-1.00;106006;1253;1003548;-77
2023/07/17 08:29:37;;;;;;;3.70;2.10;;;;;;;-128.00;-1.00;-1.00;105969;1250;1004280;-77
2023/07/17 08:32:04;;;;;;;4.50;2.00;;;;;;;-128.00;-1.00;-1.00;105939;1251;1006242;-77
2023/07/17 08:34:31;;;;;;;2.30;2.00;;;;;;;-128.00;-1.00;-1.00;105936;1251;1004443;-77
2023/07/17 08:36:58;;;;;;;1.80;1.70;;;;;;;-128.00;-1.00;-1.00;105959;1249;1003975;-77
2023/07/17 08:39:24;;;;;;;2.40;2.20;;;;;;;-128.00;-1.00;-1.00;105975;1249;1005265;-77
2023/07/17 08:41:51;;;;;;;3.10;2.50;;;;;;;-128.00;-1.00;-1.00;105965;1251;1004307;-77
2023/07/17 08:44:18;;;;;;;2.50;2.40;;;;;;;-128.00;-1.00;-1.00;105998;1251;1004799;-78
2023/07/17 08:46:47;;;;;;;4.10;2.30;;;;;;;-128.00;-1.00;-1.00;105948;1250;1004396;-78
2023/07/17 08:49:19;;;;;;;2.40;2.20;;;;;;;-128.00;-1.00;-1.00;105921;1251;1046084;-78
2023/07/17 08:51:51;;;;;;;4.80;2.70;;;;;;;-128.00;-1.00;-1.00;105486;1250;1047470;-78
2023/07/17 08:54:18;;;;;;;2.30;2.10;;;;;;;-128.00;-1.00;-1.00;106015;1251;1061313;-77
2023/07/17 08:56:46;;;;;;;2.90;2.40;;;;;;;-128.00;-1.00;-1.00;105998;1251;1003493;-77
2023/07/17 08:59:13;;;;;;;2.60;2.20;;;;;;;-128.00;-1.00;-1.00;105945;1249;1004288;-78
2023/07/17 09:01:40;;;;;;;2.70;2.40;;;;;;;-128.00;-1.00;-1.00;105990;1250;1004358;-78
2023/07/17 09:04:09;;;;;;;2.20;2.00;;;;;;;-128.00;-1.00;-1.00;106022;1249;1004489;-78
2023/07/17 09:06:35;;;;;;;2.00;1.90;;;;;;;-128.00;-1.00;-1.00;106004;1251;1062104;-78
2023/07/17 09:09:03;;;;;;;2.80;2.40;;;;;;;-128.00;-1.00;-1.00;106018;1251;1003980;-78
2023/07/17 09:11:29;;;;;;;3.70;2.10;;;;;;;-128.00;-1.00;-1.00;105585;1251;1004460;-76
2023/07/17 09:13:56;;;;;;;2.30;2.10;;;;;;;-128.00;-1.00;-1.00;105919;1250;1003953;-76
2023/07/17 09:16:24;;;;;;;2.20;2.00;;;;;;;-128.00;-1.00;-1.00;105998;1251;1004589;-77
2023/07/17 09:18:52;;;;;;;2.40;2.10;;;;;;;-128.00;-1.00;-1.00;105935;1250;1004765;-77
2023/07/17 09:21:22;;;;;;;2.30;2.00;;;;;;;-128.00;-1.00;-1.00;105967;1251;1003692;-77
2023/07/17 09:23:52;;;;;;;2.50;2.30;;;;;;;-128.00;-1.00;-1.00;105958;1251;1058130;-77
2023/07/17 09:26:21;;;;;;;2.50;2.30;;;;;;;-128.00;-1.00;-1.00;105679;1249;1046273;-77
2023/07/17 09:28:50;;;;;;;2.40;2.20;;;;;;;-128.00;-1.00;-1.00;105994;1250;1046752;-77
2023/07/17 09:31:24;;;;;;;2.60;2.30;;;;;;;-128.00;-1.00;-1.00;105934;1251;1061656;-76
2023/07/17 09:33:53;;;;;;;2.80;1.90;;;;;;;-128.00;-1.00;-1.00;105996;1249;1055359;-77
2023/07/17 09:36:21;;;;;;;2.60;2.10;;;;;;;-128.00;-1.00;-1.00;106020;1249;1059662;-76
2023/07/17 09:38:56;;;;;;;5.20;2.20;;;;;;;-128.00;-1.00;-1.00;105936;1251;1003618;-76
2023/07/17 09:41:28;;;;;;;4.90;2.30;;;;;;;-128.00;-1.00;-1.00;105926;1250;1047346;-76
2023/07/17 09:44:03;;;;;;;4.10;2.30;;;;;;;-128.00;-1.00;-1.00;105956;1250;1060594;-74
2023/07/17 09:46:32;;;;;;;2.80;2.60;;;;;;;-128.00;-1.00;-1.00;106006;1250;1054945;-71
2023/07/17 09:48:59;;;;;;;3.40;2.40;;;;;;;-128.00;-1.00;-1.00;105967;1249;1059043;-73
2023/07/17 09:51:26;;;;;;;3.30;2.30;;;;;;;-128.00;-1.00;-1.00;105964;1249;1004370;-73
2023/07/17 09:53:53;;;;;;;4.40;2.70;;;;;;;-128.00;-1.00;-1.00;105989;1250;1003951;-73
2023/07/17 09:56:20;;;;;;;4.10;2.20;;;;;;;-128.00;-1.00;-1.00;105955;1251;1003724;-73
2023/07/17 09:58:50;;;;;;;4.10;2.60;;;;;;;-128.00;-1.00;-1.00;105963;1250;1003987;-73
2023/07/17 10:01:19;;;;;;;4.20;2.60;;;;;;;-128.00;-1.00;-1.00;106003;1250;1060008;-73
2023/07/17 10:03:49;;;;;;;3.20;2.20;;;;;;;-128.00;-1.00;-1.00;105961;1249;1045695;-73
2023/07/17 10:06:18;;;;;;;3.80;2.80;;;;;;;-128.00;-1.00;-1.00;105981;1251;1047954;-73
2023/07/17 10:08:51;;;;;;;3.20;2.90;;;;;;;-128.00;-1.00;-1.00;105980;1251;1061159;-73
2023/07/17 10:11:19;;;;;;;4.60;3.00;;;;;;;-128.00;-1.00;-1.00;105998;1250;1055705;-73
2023/07/17 10:13:49;;;;;;;4.00;3.30;;;;;;;-128.00;-1.00;-1.00;105921;1250;1003939;-74
2023/07/17 10:16:18;;;;;;;4.80;3.30;;;;;;;-128.00;-1.00;-1.00;105663;1250;1047201;-71
2023/07/17 10:18:54;;;;;;;8.00;3.80;;;;;;;-128.00;-1.00;-1.00;105960;1250;1046654;-73
2023/07/17 10:21:22;;;;;;;5.90;3.20;;;;;;;-128.00;-1.00;-1.00;105957;1251;1061320;-73
2023/07/17 10:23:50;;;;;;;5.20;3.70;;;;;;;-128.00;-1.00;-1.00;106022;1251;1004815;-73
2023/07/17 10:26:19;;;;;;;5.80;3.60;;;;;;;-128.00;-1.00;-1.00;105972;1249;1003975;-73
2023/07/17 10:28:52;;;;;;;;;;;;;;;-128.00;-1.00;-1.00;105963;1249;1046572;-71
2023/07/17 10:31:21;;;;;;;5.30;3.80;;;;;;;-128.00;-1.00;-1.00;105979;1250;1047359;-71
2023/07/17 13:30:52;;;;;;;10.60;9.70;;;;;;;20.80;100.00;99015.44;103745;1276;607307;-77
2023/07/17 13:33:18;;;;;;;9.20;8.60;;;;;;;21.07;100.00;99016.46;104930;1267;60926;-76
2023/07/17 13:35:44;;;;;;;9.50;8.70;;;;;;;21.31;100.00;99015.52;105738;1254;59542;-77
2023/07/17 13:38:10;;;;;;;10.30;9.40;;;;;;;21.50;100.00;99002.91;105719;1254;59832;-77
2023/07/17 13:40:37;;;;;;;8.80;8.20;;;;;;;21.69;100.00;98985.60;105689;1257;59286;-77
2023/07/17 13:43:03;;;;;;;9.10;8.30;;;;;;;21.79;100.00;98978.46;105445;1257;359455;-76
2023/07/17 13:45:29;;;;;;;9.40;8.80;;;;;;;21.90;100.00;98993.30;105838;1256;59799;-76
2023/07/17 13:47:55;;;;;;;9.80;9.00;;;;;;;22.06;100.00;99010.13;105642;1251;59327;-76
2023/07/17 13:50:21;;;;;;;10.40;9.20;;;;;;;22.21;100.00;99027.41;105702;1257;59368;-76
2023/07/17 13:52:47;;;;;;;9.00;8.30;;;;;;;22.30;100.00;99045.17;105887;1255;60556;-76
2023/07/17 13:55:13;;;;;;;8.80;8.10;;;;;;;22.32;100.00;99066.99;105894;1251;59910;-76
2023/07/17 13:57:39;;;;;;;9.10;8.10;;;;;;;22.38;100.00;99087.16;105891;1251;59618;-77
2023/07/17 14:00:07;;;;;;;10.80;8.50;;;;;;;22.49;100.00;99090.95;105851;1251;59848;-77
2023/07/17 14:02:33;;;;;;;9.50;8.50;;;;;;;22.61;100.00;99083.59;105924;1250;61696;-77
2023/07/17 14:04:59;;;;;;;8.30;7.60;;;;;;;22.77;100.00;99076.86;105859;1251;59698;-77
2023/07/17 14:07:25;;;;;;;9.20;8.20;;;;;;;23.02;100.00;99066.73;105879;1256;59652;-77